Time;durP1;ratioP1;P1;durP2;ratioP2;P2;SDS_P1;SDS_P2;PMS_P1;PMS_P2;Temp;Humidity;BMP_temperature;BMP_pressure;BME280_temperature;BME280_humidity;BME280_pressure;Samples;Min_cycle;Max_cycle;Signal;HPM_P1;HPM_P2
2022/01/25 00:25:04;;;;;;;;;;;;;;;19.90;41.09;101097.03;2085367;28;19956;-40
2022/01/25 00:26:18;;;;;;;;;;;;;;;19.87;41.08;101092.69;2082501;28;19920;-40
2022/01/25 00:28:27;;;;;;;;;;;;;;;19.85;41.01;101088.34;2082975;28;19970;-41
2022/01/25 00:29:36;;;;;;;;;;;;;;;19.86;41.00;101090.06;2083300;28;19923;-40
2022/01/25 00:30:56;;;;;;;;;;;;;;;19.87;40.99;101089.09;2080988;28;20066;-40
2022/01/25 00:31:57;;;;;;;;;;;;;;;19.85;41.10;101089.22;2084386;28;19923;-40
2022/01/25 00:32:57;;;;;;;;;;;;;;;19.85;41.00;101088.34;2081056;28;20099;-41
2022/01/25 00:33:58;;;;;;;;;;;;;;;19.84;41.05;101090.22;2080032;28;19921;-40
2022/01/25 00:34:58;;;;;;;;;;;;;;;19.84;41.06;101089.31;2080574;28;20236;-39
2022/01/25 00:35:59;;;;;;;;;;;;;;;19.84;41.03;101089.31;2077771;28;19921;-39
2022/01/25 00:37:00;;;;;;;;;;;;;;;19.83;41.04;101088.47;2082283;28;19920;-40
2022/01/25 00:38:00;;;;;;;;;;;;;;;19.83;41.05;101090.34;2083491;28;20408;-40
2022/01/25 00:39:01;;;;;;;;;;;;;;;19.82;41.04;101083.13;2083794;28;20029;-40
2022/01/25 00:40:03;;;;;;;;;;;;;;;19.82;41.07;101088.59;2084626;28;19920;-41
2022/01/25 00:41:04;;;;;;;;;;;;;;;19.81;41.07;101089.59;2079702;28;20143;-40
2022/01/25 00:42:10;;;;;;;;;;;;;;;19.79;41.09;101088.84;2083190;28;20396;-39
2022/01/25 00:43:11;;;;;;;;;;;;;;;19.81;41.09;101092.34;2082544;28;20011;-41
2022/01/25 00:44:12;;;;;;;;;;;;;;;19.79;41.21;101088.84;2084090;28;20102;-40
2022/01/25 00:45:15;;;;;;;;;;;;;;;19.77;41.15;101090.84;2084671;28;20381;-40
2022/01/25 00:46:16;;;;;;;;;;;;;;;19.78;41.21;101092.59;2082911;28;19924;-40
2022/01/25 00:47:16;;;;;;;;;;;;;;;19.76;41.28;101100.06;2083180;28;20013;-40
2022/01/25 00:48:19;;;;;;;;;;;;;;;19.75;41.20;101092.88;2083771;28;20213;-39
2022/01/25 00:49:27;;;;;;;;;;;;;;;19.73;41.20;101094.84;2083502;28;19955;-40
2022/01/25 00:50:31;;;;;;;;;;;;;;;19.70;41.28;101094.13;2082292;28;19912;-40
2022/01/25 00:53:57;;;;;;;;;;;;;;;19.66;41.45;101100.81;2080248;28;20311;-40
2022/01/25 00:54:59;;;;;;;;;;;;;;;19.67;41.41;101108.06;2086107;28;20320;-39
2022/01/25 00:55:59;;;;;;;;;;;;;;;19.64;41.45;101108.25;2084967;28;20350;-39
2022/01/25 00:57:00;;;;;;;;;;;;;;;19.63;41.44;101106.53;2083365;28;20065;-39
2022/01/25 00:58:01;;;;;;;;;;;;;;;19.63;41.50;101109.28;2082836;28;19962;-40
2022/01/25 00:59:08;;;;;;;;;;;;;;;19.63;41.49;101106.53;2085904;28;20315;-39
2022/01/25 01:00:09;;;;;;;;;;;;;;;19.62;41.49;101110.28;2081421;28;19924;-40
2022/01/25 01:01:10;;;;;;;;;;;;;;;19.60;41.50;101109.53;2085250;28;20307;-40
2022/01/25 01:02:11;;;;;;;;;;;;;;;19.61;41.46;101111.25;2081986;28;19978;-40
2022/01/25 01:03:12;;;;;;;;;;;;;;;19.60;41.57;101117.75;2084590;28;19920;-40
2022/01/25 01:04:13;;;;;;;;;;;;;;;19.59;41.50;101110.53;2080377;28;20588;-40
2022/01/25 01:05:13;;;;;;;;;;;;;;;19.58;41.63;101114.25;2081745;28;20420;-40
2022/01/25 01:06:15;;;;;;;;;;;;;;;19.59;41.60;101115.13;2079393;28;20011;-41
2022/01/25 01:07:16;;;;;;;;;;;;;;;19.57;41.63;101112.50;2081751;28;19924;-40
2022/01/25 01:08:17;;;;;;;;;;;;;;;19.57;41.63;101117.97;2083972;28;19993;-40
2022/01/25 01:09:19;;;;;;;;;;;;;;;19.55;41.54;101111.78;2085632;28;19985;-40
2022/01/25 01:10:22;;;;;;;;;;;;;;;19.54;41.47;101115.50;2083466;28;20409;-40
2022/01/25 01:11:30;;;;;;;;;;;;;;;19.53;41.58;101116.50;2082647;28;20218;-40
2022/01/25 01:16:32;;;;;;;;;;;;;;;19.36;41.24;101117.06;2080478;28;19921;-39
2022/01/25 01:29:05;;;;;;;;;;;;;;;19.01;42.18;101123.53;2079900;28;20385;-45
2022/01/25 01:31:02;;;;;;;;;;;;;;;19.10;42.08;101125.50;2083892;28;19920;-42
2022/01/25 01:32:20;;;;;;;;;;;;;;;19.12;42.09;101120.78;2082215;28;20020;-42
2022/01/25 01:35:32;;;;;;;;;;;;;;;19.16;41.90;101127.75;2070937;28;19921;-44
2022/01/25 01:43:56;;;;;;;;;;;;;;;19.34;41.58;101128.09;2080881;28;20241;-44
2022/01/25 01:47:22;;;;;;;;;;;;;;;19.38;41.41;101132.34;2082386;28;20777;-42
2022/01/25 01:49:06;;;;;;;;;;;;;;;19.40;41.39;101132.19;2079163;28;20066;-43
2022/01/25 01:49:46;;;;;;;;;;;;;;;19.42;41.34;101135.66;2083392;28;19912;-43
2022/01/25 01:50:47;;;;;;;;;;;;;;;19.43;41.41;101131.97;2083452;28;19921;-43
2022/01/25 01:51:49;;;;;;;;;;;;;;;19.43;41.18;101131.97;2082822;28;20009;-44
2022/01/25 01:52:49;;;;;;;;;;;;;;;19.45;41.37;101138.13;2079195;28;19990;-43
2022/01/25 01:53:49;;;;;;;;;;;;;;;19.44;41.12;101129.06;2081365;28;19927;-42
2022/01/25 01:54:50;;;;;;;;;;;;;;;19.46;41.25;101132.56;2082432;28;20316;-43
2022/01/25 01:55:50;;;;;;;;;;;;;;;19.46;41.23;101138.03;2083722;28;19924;-44
2022/01/25 01:56:51;;;;;;;;;;;;;;;19.48;41.05;101138.78;2080636;28;20255;-43
2022/01/25 01:57:51;;;;;;;;;;;;;;;19.49;41.16;101136.91;2083955;28;20367;-42
2022/01/25 01:58:53;;;;;;;;;;;;;;;19.51;41.24;101139.53;2078417;28;20176;-43
2022/01/25 01:59:53;;;;;;;;;;;;;;;19.51;41.10;101129.44;2082446;28;19920;-45
2022/01/25 02:00:54;;;;;;;;;;;;;;;19.54;41.14;101133.78;2085263;28;19916;-44
2022/01/25 02:01:54;;;;;;;;;;;;;;;19.53;41.03;101138.41;2076511;28;20643;-44
2022/01/25 02:02:54;;;;;;;;;;;;;;;19.54;41.04;101139.25;2081938;28;20172;-45
2022/01/25 02:03:56;;;;;;;;;;;;;;;19.54;40.97;101131.91;2081791;28;20323;-44
2022/01/25 02:04:56;;;;;;;;;;;;;;;19.56;40.93;101132.66;2081671;28;19912;-40
2022/01/25 02:05:56;;;;;;;;;;;;;;;19.59;40.91;101132.41;2083650;28;19924;-40
2022/01/25 02:06:56;;;;;;;;;;;;;;;19.63;40.77;101136.63;2078835;28;20350;-40
2022/01/25 02:07:57;;;;;;;;;;;;;;;19.62;40.86;101136.75;2082153;28;19931;-39
2022/01/25 02:08:58;;;;;;;;;;;;;;;19.59;40.89;101143.34;2082585;28;19927;-40
2022/01/25 02:09:58;;;;;;;;;;;;;;;19.57;40.95;101136.25;2081104;28;19927;-40
2022/01/25 02:10:58;;;;;;;;;;;;;;;19.53;40.97;101135.66;2084330;28;19927;-39
2022/01/25 02:11:58;;;;;;;;;;;;;;;19.54;40.92;101134.66;2083577;28;19928;-40
2022/01/25 02:12:59;;;;;;;;;;;;;;;19.52;41.05;101128.44;2080765;28;19927;-39
2022/01/25 02:14:05;;;;;;;;;;;;;;;19.52;41.06;101136.63;2083173;28;19920;-39
2022/01/25 02:15:05;;;;;;;;;;;;;;;19.51;40.87;101125.84;2082574;28;20388;-39
2022/01/25 02:16:08;;;;;;;;;;;;;;;19.50;40.92;101133.19;2082901;28;19916;-39
2022/01/25 02:17:25;;;;;;;;;;;;;;;19.51;41.02;101140.38;2082493;28;19912;-40
2022/01/25 02:23:24;;;;;;;;;;;;;;;19.53;40.85;101138.41;2084688;28;19924;-39
2022/01/25 02:24:25;;;;;;;;;;;;;;;19.54;40.89;101134.66;2082551;28;19921;-40
2022/01/25 02:25:25;;;;;;;;;;;;;;;19.53;40.78;101138.41;2083461;28;19922;-39
2022/01/25 02:26:25;;;;;;;;;;;;;;;19.54;40.74;101129.19;2083468;28;20003;-40
2022/01/25 02:27:25;;;;;;;;;;;;;;;19.56;40.84;101138.13;2083981;28;20373;-39
2022/01/25 02:28:28;;;;;;;;;;;;;;;19.57;40.71;101139.00;2083577;28;19916;-39
2022/01/25 02:29:28;;;;;;;;;;;;;;;19.57;40.60;101134.38;2081409;28;19962;-39
2022/01/25 02:30:28;;;;;;;;;;;;;;;19.57;40.65;101128.91;2082877;28;20409;-39
2022/01/25 02:31:29;;;;;;;;;;;;;;;19.58;40.66;101136.13;2083759;28;20125;-39
2022/01/25 02:32:29;;;;;;;;;;;;;;;19.57;40.71;101134.38;2083623;28;20382;-39
2022/01/25 02:33:30;;;;;;;;;;;;;;;19.59;40.69;101139.75;2083156;28;20007;-39
2022/01/25 02:34:30;;;;;;;;;;;;;;;19.59;40.63;101134.28;2078832;28;20350;-39
2022/01/25 02:35:31;;;;;;;;;;;;;;;19.59;40.64;101137.88;2077439;28;20304;-39
2022/01/25 02:36:32;;;;;;;;;;;;;;;19.59;40.64;101137.00;2078613;28;19920;-40
2022/01/25 02:37:32;;;;;;;;;;;;;;;19.59;40.70;101132.41;2084061;28;19932;-39
2022/01/25 02:38:33;;;;;;;;;;;;;;;19.59;40.57;101140.59;2082482;28;19931;-41
2022/01/25 02:39:37;;;;;;;;;;;;;;;19.58;40.66;101138.00;2084747;28;19925;-39
2022/01/25 02:40:37;;;;;;;;;;;;;;;19.58;40.57;101136.13;2082804;28;19929;-39
2022/01/25 02:41:38;;;;;;;;;;;;;;;19.57;40.66;101139.84;2081370;28;20375;-39
2022/01/25 02:42:38;;;;;;;;;;;;;;;19.54;40.73;101140.13;2081684;28;19920;-39
2022/01/25 02:43:38;;;;;;;;;;;;;;;19.55;40.61;101147.34;2084402;28;21090;-39
2022/01/25 02:44:39;;;;;;;;;;;;;;;19.54;40.83;101134.66;2084591;28;19916;-39
2022/01/25 02:45:39;;;;;;;;;;;;;;;19.53;40.74;101141.13;2085180;28;20025;-39
2022/01/25 02:48:59;;;;;;;;;;;;;;;19.52;40.82;101136.63;2083167;28;19921;-39
2022/01/25 02:49:59;;;;;;;;;;;;;;;19.51;40.83;101148.59;2084649;28;19924;-39
2022/01/25 02:51:00;;;;;;;;;;;;;;;19.52;40.87;101139.38;2085190;28;19916;-39
2022/01/25 02:52:03;;;;;;;;;;;;;;;19.50;40.81;101138.66;2084052;28;19926;-40
2022/01/25 02:53:03;;;;;;;;;;;;;;;19.51;40.83;101136.78;2085890;28;20429;-40
2022/01/25 02:54:07;;;;;;;;;;;;;;;19.52;40.77;101141.25;2082494;28;20327;-40
2022/01/25 02:55:07;;;;;;;;;;;;;;;19.50;40.84;101133.19;2080185;28;20321;-39
2022/01/25 02:56:07;;;;;;;;;;;;;;;19.51;40.78;101134.06;2082745;28;19920;-39
2022/01/25 02:57:08;;;;;;;;;;;;;;;19.51;40.77;101134.91;2082290;28;19920;-39
2022/01/25 02:58:08;;;;;;;;;;;;;;;19.52;40.77;101130.31;2084857;28;19923;-39
2022/01/25 02:59:09;;;;;;;;;;;;;;;19.53;40.71;101138.41;2080955;28;19924;-40
2022/01/25 03:00:10;;;;;;;;;;;;;;;19.53;40.79;101130.19;2078127;28;19921;-39
2022/01/25 03:01:10;;;;;;;;;;;;;;;19.54;40.82;101131.91;2082268;28;20014;-39
2022/01/25 03:02:11;;;;;;;;;;;;;;;19.55;40.80;101132.78;2082311;28;19947;-40
2022/01/25 03:03:11;;;;;;;;;;;;;;;19.55;40.81;101127.31;2084956;28;19911;-39
2022/01/25 03:04:12;;;;;;;;;;;;;;;19.55;40.81;101130.94;2083879;28;19916;-39
2022/01/25 03:05:12;;;;;;;;;;;;;;;19.57;40.82;101130.78;2085480;28;19916;-40
2022/01/25 03:06:19;;;;;;;;;;;;;;;19.57;40.86;101131.66;2081761;28;20010;-39
2022/01/25 03:07:19;;;;;;;;;;;;;;;19.56;40.74;101132.66;2085938;28;20017;-40
2022/01/25 03:08:20;;;;;;;;;;;;;;;19.57;40.81;101133.53;2083815;28;20274;-39
2022/01/25 03:09:20;;;;;;;;;;;;;;;19.57;40.89;101133.53;2083707;28;20087;-39
2022/01/25 03:10:21;;;;;;;;;;;;;;;19.56;40.92;101132.66;2084765;28;20325;-39
2022/01/25 03:11:23;;;;;;;;;;;;;;;19.55;40.95;101136.41;2084869;28;19962;-39
2022/01/25 03:12:33;;;;;;;;;;;;;;;19.55;40.85;101136.41;2080547;28;19974;-40
2022/01/25 03:13:47;;;;;;;;;;;;;;;19.55;40.93;101130.94;2084531;28;20001;-39
2022/01/25 03:15:10;;;;;;;;;;;;;;;19.55;40.96;101128.19;2083172;28;19924;-39
2022/01/25 03:16:18;;;;;;;;;;;;;;;19.55;40.91;101130.94;2079744;28;20561;-39
2022/01/25 03:17:25;;;;;;;;;;;;;;;19.56;41.00;101131.81;2085661;28;19928;-39
2022/01/25 03:20:47;;;;;;;;;;;;;;;19.55;40.98;101136.41;2084264;28;19912;-39
2022/01/25 03:21:47;;;;;;;;;;;;;;;19.55;41.00;101132.78;2085112;28;19924;-39
2022/01/25 03:23:54;;;;;;;;;;;;;;;19.54;41.07;101131.91;2083162;28;19931;-39
2022/01/25 03:24:54;;;;;;;;;;;;;;;19.56;41.00;101131.81;2084960;28;19921;-40
2022/01/25 03:25:55;;;;;;;;;;;;;;;19.56;41.12;101131.81;2085324;28;20699;-39
2022/01/25 03:26:55;;;;;;;;;;;;;;;19.57;40.95;101131.66;2084976;28;19916;-40
2022/01/25 03:27:57;;;;;;;;;;;;;;;19.57;40.89;101139.84;2083499;28;19927;-39
2022/01/25 03:28:58;;;;;;;;;;;;;;;19.57;40.75;101128.91;2084481;28;19924;-39
2022/01/25 03:29:58;;;;;;;;;;;;;;;19.58;40.83;101136.13;2083863;28;20015;-39
2022/01/25 03:30:58;;;;;;;;;;;;;;;19.59;40.94;101137.88;2082255;28;20003;-40
2022/01/25 03:31:58;;;;;;;;;;;;;;;19.58;40.81;101138.88;2085282;28;20027;-39
2022/01/25 03:32:59;;;;;;;;;;;;;;;19.58;40.89;101141.63;2084420;28;20381;-39
2022/01/25 03:33:59;;;;;;;;;;;;;;;19.58;40.88;101141.63;2084929;28;20189;-39
2022/01/25 03:35:00;;;;;;;;;;;;;;;19.59;40.91;101146.06;2084004;28;20030;-39
2022/01/25 03:36:00;;;;;;;;;;;;;;;19.58;40.88;101146.22;2083813;28;19913;-39
2022/01/25 03:37:01;;;;;;;;;;;;;;;19.57;40.92;101144.47;2082203;28;19997;-39
2022/01/25 03:38:01;;;;;;;;;;;;;;;19.55;40.95;101136.41;2081390;28;20390;-40
2022/01/25 03:39:03;;;;;;;;;;;;;;;19.55;40.97;101136.41;2085327;28;20335;-40
2022/01/25 03:40:03;;;;;;;;;;;;;;;19.56;40.99;101148.22;2083703;28;19995;-39
2022/01/25 03:41:04;;;;;;;;;;;;;;;19.53;41.09;101149.34;2084202;28;20649;-39
2022/01/25 03:42:09;;;;;;;;;;;;;;;19.52;41.10;101143.97;2085101;28;19921;-39
2022/01/25 03:43:10;;;;;;;;;;;;;;;19.51;41.04;101145.00;2083122;28;19947;-40
2022/01/25 03:44:10;;;;;;;;;;;;;;;19.49;41.15;101145.09;2081576;28;19967;-39
2022/01/25 03:45:18;;;;;;;;;;;;;;;19.48;41.13;101146.13;2085244;28;19921;-39
2022/01/25 03:46:26;;;;;;;;;;;;;;;19.48;41.11;101146.13;2083672;28;20247;-39
2022/01/25 03:47:41;;;;;;;;;;;;;;;19.46;41.21;101153.56;2083344;28;19967;-39
2022/01/25 03:50:01;;;;;;;;;;;;;;;19.45;41.28;101146.34;2083589;28;19925;-39
2022/01/25 03:51:01;;;;;;;;;;;;;;;19.45;41.30;101146.34;2083760;28;19998;-39
2022/01/25 03:52:02;;;;;;;;;;;;;;;19.43;41.30;101142.91;2083915;28;19951;-39
2022/01/25 03:53:02;;;;;;;;;;;;;;;19.43;41.39;101149.22;2082113;28;19924;-39
2022/01/25 03:54:03;;;;;;;;;;;;;;;19.42;41.39;101152.06;2083068;28;19921;-39
2022/01/25 03:55:04;;;;;;;;;;;;;;;19.42;41.49;101152.06;2084899;28;19923;-39
2022/01/25 03:56:04;;;;;;;;;;;;;;;19.41;41.45;101150.34;2082890;28;20309;-40
2022/01/25 03:57:05;;;;;;;;;;;;;;;19.41;41.46;101150.34;2084563;28;20604;-39
2022/01/25 03:58:05;;;;;;;;;;;;;;;19.40;41.43;101145.84;2081638;28;19921;-39
2022/01/25 03:59:07;;;;;;;;;;;;;;;19.40;41.40;101149.50;2082896;28;19920;-39
2022/01/25 04:00:09;;;;;;;;;;;;;;;19.41;41.42;101151.22;2085134;28;19924;-39
2022/01/25 04:01:10;;;;;;;;;;;;;;;19.40;41.40;101145.84;2084964;28;20035;-39
2022/01/25 04:02:11;;;;;;;;;;;;;;;19.41;41.38;101144.88;2083312;28;19924;-39
2022/01/25 04:03:26;;;;;;;;;;;;;;;19.41;41.51;101147.63;2084519;28;20411;-40
2022/01/25 04:04:29;;;;;;;;;;;;;;;19.40;41.46;101146.75;2080284;28;20016;-41
2022/01/25 04:06:47;;;;;;;;;;;;;;;19.39;41.48;101141.41;2080713;28;19947;-39
2022/01/25 04:07:50;;;;;;;;;;;;;;;19.38;41.49;101147.88;2081255;28;19927;-39
2022/01/25 04:08:50;;;;;;;;;;;;;;;19.37;41.45;101143.38;2077779;28;19917;-39
2022/01/25 04:09:51;;;;;;;;;;;;;;;19.35;41.62;101146.22;2083777;28;19912;-39
2022/01/25 04:10:51;;;;;;;;;;;;;;;19.36;41.54;101152.59;2084805;28;19909;-39
2022/01/25 04:11:51;;;;;;;;;;;;;;;19.34;41.53;101147.25;2083930;28;19917;-39
2022/01/25 04:12:52;;;;;;;;;;;;;;;19.34;41.64;101154.59;2084489;28;19912;-39
2022/01/25 04:13:53;;;;;;;;;;;;;;;19.32;41.64;101157.44;2084447;28;20384;-39
2022/01/25 04:14:53;;;;;;;;;;;;;;;19.32;41.68;101151.97;2082805;28;19999;-39
2022/01/25 04:15:57;;;;;;;;;;;;;;;19.32;41.60;101156.56;2083210;28;19978;-39
2022/01/25 04:19:25;;;;;;;;;;;;;;;19.30;41.79;101153.09;2083938;28;20034;-40
2022/01/25 04:20:31;;;;;;;;;;;;;;;19.27;41.73;101148.75;2080998;28;19920;-39
2022/01/25 04:25:14;;;;;;;;;;;;;;;19.26;41.82;101158.81;2080408;28;19953;-39
2022/01/25 04:26:15;;;;;;;;;;;;;;;19.25;41.74;101156.19;2077948;28;19924;-40
2022/01/25 04:27:15;;;;;;;;;;;;;;;19.24;41.80;101155.31;2078963;28;20053;-39
2022/01/25 04:28:15;;;;;;;;;;;;;;;19.25;41.79;101161.66;2081618;28;19923;-39
2022/01/25 04:29:15;;;;;;;;;;;;;;;19.24;41.69;101155.31;2080747;28;19924;-39
2022/01/25 04:30:16;;;;;;;;;;;;;;;19.24;41.75;101162.66;2084186;28;20381;-39
2022/01/25 04:31:19;;;;;;;;;;;;;;;19.25;41.75;101158.94;2083347;28;20356;-39
2022/01/25 04:32:20;;;;;;;;;;;;;;;19.24;41.75;101160.78;2013925;28;2010790;-39
2022/01/25 04:33:25;;;;;;;;;;;;;;;19.25;41.83;101156.19;2084675;28;20007;-39
2022/01/25 04:34:40;;;;;;;;;;;;;;;19.23;41.74;101159.06;2080089;28;20201;-39
2022/01/25 04:36:23;;;;;;;;;;;;;;;19.22;41.72;101161.91;2083079;28;19927;-39
2022/01/25 04:49:01;;;;;;;;;;;;;;;19.13;41.91;101169.00;2082744;28;20661;-39
2022/01/25 04:50:01;;;;;;;;;;;;;;;19.13;41.91;101162.66;2084647;28;20412;-39
2022/01/25 04:52:12;;;;;;;;;;;;;;;19.11;42.06;101167.38;2083182;28;20566;-39
2022/01/25 04:53:30;;;;;;;;;;;;;;;19.11;42.07;101165.53;2084611;28;19979;-39
2022/01/25 04:55:55;;;;;;;;;;;;;;;19.08;42.13;101171.22;2081743;28;19955;-39
2022/01/25 04:58:02;;;;;;;;;;;;;;;19.08;42.00;101171.22;2084535;28;19962;-39
2022/01/25 04:59:18;;;;;;;;;;;;;;;19.09;41.97;101166.66;2084466;28;19920;-39
2022/01/25 05:00:21;;;;;;;;;;;;;;;19.08;41.96;101171.22;2083135;28;19924;-39
2022/01/25 05:01:22;;;;;;;;;;;;;;;19.09;41.95;101172.97;2083334;28;20283;-40
2022/01/25 05:02:39;;;;;;;;;;;;;;;19.10;41.91;101169.25;2080752;28;19925;-39
2022/01/25 05:03:55;;;;;;;;;;;;;;;19.10;41.94;101169.25;2084348;28;19913;-39
2022/01/25 05:05:05;;;;;;;;;;;;;;;19.09;41.95;101166.66;2084492;28;19951;-39
2022/01/25 05:06:12;;;;;;;;;;;;;;;19.10;41.91;101173.84;2084781;28;20285;-39
2022/01/25 05:08:05;;;;;;;;;;;;;;;19.08;41.86;101167.63;2081092;28;20007;-40
2022/01/25 05:08:44;;;;;;;;;;;;;;;19.08;41.97;101179.44;2076991;28;19924;-39
2022/01/25 05:09:46;;;;;;;;;;;;;;;19.07;42.02;101174.97;2080566;28;19916;-39
2022/01/25 05:11:10;;;;;;;;;;;;;;;19.05;42.10;101176.94;2081753;28;19920;-39
2022/01/25 05:12:11;;;;;;;;;;;;;;;19.05;41.96;101176.94;2077863;28;20254;-39
2022/01/25 05:13:35;;;;;;;;;;;;;;;19.03;42.13;101170.72;2082468;28;19921;-40
2022/01/25 05:14:46;;;;;;;;;;;;;;;19.02;42.08;101169.00;2081128;28;20247;-39
2022/01/25 05:16:50;;;;;;;;;;;;;;;19.01;42.16;101167.25;2085350;28;20321;-39
2022/01/25 05:18:36;;;;;;;;;;;;;;;19.00;42.15;101165.53;2084134;28;19916;-39
2022/01/25 05:22:56;;;;;;;;;;;;;;;18.98;42.11;101164.75;2082157;28;19924;-39
2022/01/25 05:23:56;;;;;;;;;;;;;;;18.98;42.17;101172.97;2079529;28;19925;-40
2022/01/25 05:24:57;;;;;;;;;;;;;;;18.97;42.11;101168.50;2083134;28;20388;-39
2022/01/25 05:25:57;;;;;;;;;;;;;;;18.98;42.16;101164.75;2082112;28;19921;-39
2022/01/25 05:26:58;;;;;;;;;;;;;;;18.98;42.13;101171.09;2084546;28;19917;-39
2022/01/25 05:27:58;;;;;;;;;;;;;;;18.98;42.15;101168.38;2083665;28;19932;-40
2022/01/25 05:28:59;;;;;;;;;;;;;;;18.98;42.07;101181.16;2077257;28;19917;-39
2022/01/25 05:29:59;;;;;;;;;;;;;;;18.97;41.96;101180.31;2085404;28;19924;-39
2022/01/25 05:30:59;;;;;;;;;;;;;;;18.98;42.03;101181.16;2082681;28;19982;-39
2022/01/25 05:32:00;;;;;;;;;;;;;;;18.98;42.21;101171.09;2079884;28;20254;-39
2022/01/25 05:33:00;;;;;;;;;;;;;;;18.97;42.15;101177.56;2082628;28;20460;-39
2022/01/25 05:34:00;;;;;;;;;;;;;;;18.98;42.11;101186.63;2080461;28;20478;-39
2022/01/25 05:35:01;;;;;;;;;;;;;;;18.98;42.02;101186.63;2081557;28;20028;-39
2022/01/25 05:36:02;;;;;;;;;;;;;;;18.98;42.10;101186.63;2080528;28;20946;-39
2022/01/25 05:37:03;;;;;;;;;;;;;;;18.97;42.16;101188.50;2084094;28;19930;-39
2022/01/25 05:38:03;;;;;;;;;;;;;;;18.96;42.10;101186.78;2083982;28;20010;-40
2022/01/25 05:39:18;;;;;;;;;;;;;;;18.96;42.04;101183.13;2079649;28;20401;-39
2022/01/25 05:40:28;;;;;;;;;;;;;;;18.94;42.18;101180.56;2085336;28;19909;-39
2022/01/25 05:41:31;;;;;;;;;;;;;;;18.94;42.31;101182.41;2082297;28;19970;-39
2022/01/25 05:44:04;;;;;;;;;;;;;;;18.92;42.24;101192.59;2084457;28;20361;-39
2022/01/25 05:45:21;;;;;;;;;;;;;;;18.90;42.27;101186.38;2083731;28;20198;-39
2022/01/25 05:46:32;;;;;;;;;;;;;;;18.90;42.22;101189.13;2083869;28;19923;-39
2022/01/25 05:47:32;;;;;;;;;;;;;;;18.90;42.34;101194.56;2081115;28;19999;-40
2022/01/25 05:48:33;;;;;;;;;;;;;;;18.89;42.25;101187.34;2083900;28;19912;-39
2022/01/25 05:49:37;;;;;;;;;;;;;;;18.89;42.21;101195.56;2079634;28;20402;-39
2022/01/25 05:50:38;;;;;;;;;;;;;;;18.89;42.15;101198.28;2082283;28;19952;-39
2022/01/25 05:51:38;;;;;;;;;;;;;;;18.87;42.13;101186.63;2084869;28;19928;-39
2022/01/25 05:52:39;;;;;;;;;;;;;;;18.87;42.15;101195.69;2083673;28;19963;-39
2022/01/25 05:53:42;;;;;;;;;;;;;;;18.87;42.16;101189.38;2084275;28;19928;-40
2022/01/25 05:54:43;;;;;;;;;;;;;;;18.85;42.27;101198.53;2082295;28;19927;-39
2022/01/25 05:55:43;;;;;;;;;;;;;;;18.87;42.17;101200.28;2085312;28;19920;-39
2022/01/25 05:56:43;;;;;;;;;;;;;;;18.83;42.15;101195.03;2084897;28;19920;-39
2022/01/25 05:57:44;;;;;;;;;;;;;;;18.86;42.20;101199.41;2080177;28;19927;-39
2022/01/25 05:58:44;;;;;;;;;;;;;;;18.85;42.25;101205.88;2079154;28;19921;-39
2022/01/25 05:59:45;;;;;;;;;;;;;;;18.85;42.22;101195.81;2084837;28;19969;-39
2022/01/25 06:00:45;;;;;;;;;;;;;;;18.86;42.15;101199.41;2084369;28;20004;-39
2022/01/25 06:01:46;;;;;;;;;;;;;;;18.86;42.24;101202.13;2084641;28;20096;-39
2022/01/25 06:02:47;;;;;;;;;;;;;;;18.83;42.16;101200.50;2082049;28;20027;-39
2022/01/25 06:03:47;;;;;;;;;;;;;;;18.87;42.17;101205.75;2084208;28;20525;-39
2022/01/25 06:04:48;;;;;;;;;;;;;;;18.85;42.15;101203.13;2083229;28;20289;-39
2022/01/25 06:05:48;;;;;;;;;;;;;;;18.85;42.19;101212.19;2084077;28;20240;-40
2022/01/25 06:06:49;;;;;;;;;;;;;;;18.85;42.15;101211.34;2080530;28;20125;-39
2022/01/25 06:07:50;;;;;;;;;;;;;;;18.83;42.25;101208.72;2080715;28;19921;-39
2022/01/25 06:08:50;;;;;;;;;;;;;;;18.82;42.14;101206.97;2080178;28;20285;-39
2022/01/25 06:09:50;;;;;;;;;;;;;;;18.81;42.23;101218.91;2083904;28;19943;-39
2022/01/25 06:10:50;;;;;;;;;;;;;;;18.81;42.17;101213.44;2083290;28;19939;-40
2022/01/25 06:11:52;;;;;;;;;;;;;;;18.80;42.34;101208.09;2081782;28;20086;-40
2022/01/25 06:12:52;;;;;;;;;;;;;;;18.79;42.35;101215.44;2080414;28;20043;-39
2022/01/25 06:13:52;;;;;;;;;;;;;;;18.78;42.25;101205.47;2078602;28;19928;-39
2022/01/25 06:14:53;;;;;;;;;;;;;;;18.78;42.25;101202.75;2081508;28;19999;-39
2022/01/25 06:15:53;;;;;;;;;;;;;;;18.78;42.20;101213.66;2083095;28;20417;-39
2022/01/25 06:16:53;;;;;;;;;;;;;;;18.78;42.38;101215.53;2083631;28;19939;-39
2022/01/25 06:17:54;;;;;;;;;;;;;;;18.78;42.27;101216.41;2083382;28;19920;-39
2022/01/25 06:18:54;;;;;;;;;;;;;;;18.78;42.30;101216.41;2079774;28;19972;-39
2022/01/25 06:19:55;;;;;;;;;;;;;;;18.79;42.28;101215.44;2081155;28;19927;-39
2022/01/25 06:20:55;;;;;;;;;;;;;;;18.79;42.24;101220.88;2081123;28;20291;-39
2022/01/25 06:21:56;;;;;;;;;;;;;;;18.80;42.30;101217.16;2077908;28;20387;-39
2022/01/25 06:22:56;;;;;;;;;;;;;;;18.82;42.18;101219.78;2079474;28;19928;-40
2022/01/25 06:23:56;;;;;;;;;;;;;;;18.83;42.28;101221.50;2078291;28;19964;-39
2022/01/25 06:24:57;;;;;;;;;;;;;;;18.85;42.31;101216.78;2082644;28;20102;-39
2022/01/25 06:25:57;;;;;;;;;;;;;;;18.87;42.11;101223.00;2080072;28;19975;-39
2022/01/25 06:26:57;;;;;;;;;;;;;;;18.89;42.22;101222.88;2084253;28;19920;-39
2022/01/25 06:27:57;;;;;;;;;;;;;;;18.90;42.05;101221.91;2083378;28;20220;-39
2022/01/25 06:29:00;;;;;;;;;;;;;;;18.90;42.14;101221.91;2084175;28;19963;-39
2022/01/25 06:30:00;;;;;;;;;;;;;;;18.92;41.92;101219.91;2082719;28;19920;-39
2022/01/25 06:31:00;;;;;;;;;;;;;;;18.92;41.95;101218.06;2083696;28;19928;-39
2022/01/25 06:32:01;;;;;;;;;;;;;;;18.94;41.82;101220.69;2083036;28;19920;-40
2022/01/25 06:33:01;;;;;;;;;;;;;;;18.96;41.78;101221.41;2083258;28;20329;-39
2022/01/25 06:34:02;;;;;;;;;;;;;;;18.96;41.75;101222.28;2083468;28;19926;-39
2022/01/25 06:35:03;;;;;;;;;;;;;;;18.96;41.70;101226.84;2079607;28;19921;-39
2022/01/25 06:36:04;;;;;;;;;;;;;;;18.98;41.65;101222.16;2081332;28;19917;-39
2022/01/25 06:37:04;;;;;;;;;;;;;;;18.98;41.76;101214.81;2083588;28;19928;-39
2022/01/25 06:38:05;;;;;;;;;;;;;;;18.99;41.70;101222.03;2082722;28;19920;-40
2022/01/25 06:39:05;;;;;;;;;;;;;;;19.00;41.60;101225.63;2082560;28;19924;-39
2022/01/25 06:40:07;;;;;;;;;;;;;;;19.00;41.53;101225.63;2080456;28;20333;-39
2022/01/25 06:41:09;;;;;;;;;;;;;;;19.00;41.70;101222.91;2080061;28;19920;-40
2022/01/25 06:42:10;;;;;;;;;;;;;;;19.00;41.69;101220.16;2084471;28;20061;-39
2022/01/25 06:43:10;;;;;;;;;;;;;;;18.99;41.55;101226.63;2082666;28;19951;-40
2022/01/25 06:44:10;;;;;;;;;;;;;;;19.00;41.59;101233.84;2082649;28;19928;-39
2022/01/25 06:45:15;;;;;;;;;;;;;;;19.00;41.52;101225.63;2085098;28;20174;-40
2022/01/25 06:46:15;;;;;;;;;;;;;;;19.00;41.57;101228.38;2082745;28;19931;-39
2022/01/25 06:47:15;;;;;;;;;;;;;;;19.00;41.62;101225.63;2083829;28;20183;-39
2022/01/25 06:48:16;;;;;;;;;;;;;;;19.00;41.66;101229.22;2079793;28;19921;-39
2022/01/25 06:49:16;;;;;;;;;;;;;;;19.00;41.53;101228.38;2082313;28;19920;-39
2022/01/25 06:50:18;;;;;;;;;;;;;;;19.00;41.53;101222.91;2080032;28;19927;-39
2022/01/25 06:51:18;;;;;;;;;;;;;;;19.00;41.43;101222.91;2083774;28;19968;-39
2022/01/25 06:52:18;;;;;;;;;;;;;;;19.00;41.46;101228.38;2082014;28;19990;-39
2022/01/25 06:53:19;;;;;;;;;;;;;;;19.01;41.57;101221.91;2078169;28;19927;-39
2022/01/25 06:54:19;;;;;;;;;;;;;;;19.01;41.53;101227.34;2078775;28;20382;-39
2022/01/25 06:55:20;;;;;;;;;;;;;;;18.99;41.49;101222.03;2078866;28;19917;-41
2022/01/25 06:56:20;;;;;;;;;;;;;;;19.02;41.51;101223.66;2083407;28;19908;-39
2022/01/25 06:57:20;;;;;;;;;;;;;;;19.03;41.38;101228.13;2082551;28;19924;-39
2022/01/25 06:58:20;;;;;;;;;;;;;;;19.03;41.46;101228.13;2083425;28;19916;-39